createdAt,value
2023-03-30T00:03:28.368Z,9.9
2023-03-30T00:22:49.840Z,10
2023-03-30T00:42:11.168Z,10.1
2023-03-30T01:01:34.477Z,9.6
2023-03-30T01:20:55.573Z,9.5
2023-03-30T01:40:17.302Z,9.4
2023-03-30T01:59:43.520Z,11.1
2023-03-30T02:19:09.364Z,11.6
2023-03-30T02:38:34.676Z,12.3
2023-03-30T02:57:57.246Z,12.8
2023-03-30T03:17:22.432Z,13.3
2023-03-30T03:36:45.893Z,13.3
2023-03-30T03:56:09.790Z,13.3
2023-03-30T04:15:32.349Z,13.2
2023-03-30T04:34:54.634Z,12.8
2023-03-30T04:54:17.653Z,13.1
2023-03-30T05:13:41.840Z,13.4
2023-03-30T05:33:03.388Z,13.5
2023-03-30T05:52:25.173Z,13.5
2023-03-30T06:11:45.589Z,13.6
2023-03-30T06:31:08.463Z,13.7
2023-03-30T06:50:31.138Z,13.5
2023-03-30T07:09:54.436Z,13.7
2023-03-30T07:29:15.630Z,13.8
2023-03-30T07:48:40.074Z,14.4
2023-03-30T08:08:08.318Z,15.2
2023-03-30T08:27:30.347Z,15
2023-03-30T08:46:51.193Z,14.8
2023-03-30T09:06:09.200Z,13.3
2023-03-30T09:25:31.974Z,14.3
2023-03-30T09:44:55.359Z,14.6
2023-03-30T10:04:12.748Z,12.7
2023-03-30T10:23:30.029Z,11.2
2023-03-30T10:42:49.356Z,10.8
2023-03-30T11:02:13.882Z,11.6
2023-03-30T11:21:35.566Z,12
2023-03-30T11:41:01.230Z,12.9
2023-03-30T12:00:24.723Z,12.8
2023-03-30T12:19:55.941Z,13.5
2023-03-30T12:39:16.545Z,13.7
2023-03-30T12:58:39.875Z,14.1
2023-03-30T13:18:04.151Z,13.7
2023-03-30T13:37:26.600Z,13.5
2023-03-30T13:56:48.789Z,13
2023-03-30T14:16:09.575Z,12.8
2023-03-30T14:35:26.839Z,12.3
2023-03-30T14:55:02.293Z,12.9
2023-03-30T15:14:25.219Z,13.1
2023-03-30T15:33:49.785Z,13.5
2023-03-30T15:53:14.007Z,14
2023-03-30T16:12:35.919Z,13.7
2023-03-30T16:31:59.293Z,13.9
2023-03-30T16:51:21.599Z,13.5
2023-03-30T17:10:38.148Z,12.7
2023-03-30T17:29:59.033Z,12.3
2023-03-30T17:49:26.023Z,13.1
2023-03-30T18:08:49.380Z,13.1
2023-03-30T18:28:10.140Z,12.9
2023-03-30T18:47:32.146Z,12.9
2023-03-30T19:06:53.593Z,12.8
2023-03-30T19:26:16.132Z,12.6
2023-03-30T19:45:38.521Z,12.2
2023-03-30T20:04:59.666Z,12
2023-03-30T20:24:22.274Z,11.8
2023-03-30T20:43:55.591Z,11.6
2023-03-30T21:03:10.119Z,11.4
2023-03-30T21:22:32.065Z,11.4
2023-03-30T21:41:55.054Z,11.3
2023-03-30T22:01:17.524Z,11.2
2023-03-30T22:20:38.073Z,11.2
2023-03-30T22:40:01.576Z,11.2
2023-03-30T22:59:23.785Z,11.2
2023-03-30T23:18:44.863Z,11.2
2023-03-30T23:38:08.217Z,11
2023-03-30T23:57:29.286Z,11
